KFMN

Four Corners Regional Airport

Farmington, New Mexico, USA
METAR KFMN 172053Z 28011KT 10SM CLR 11/M09 A3016 RMK AO2 SLP225 T01061094 58026
Observed Flight Rules
Feb-17 @ 20:53 UTC (43 minutes ago) Visual Flight Rules
Wind Visibility Clouds
280° at 11 knots 10 miles
  • Clear skies
Temperatures Readings
Current 11°C / 52°F
Dewpoint -9°C / 16°F
Humidity 24%
Altimeter 30.16" Hg
Pressure 1022.5 hPa
Elevation 1685
METAR KFMN 172053Z 28011KT 10SM CLR 11/M09 A3016 RMK AO2 SLP225 T01061094 58026
Observed Flight Rules
Feb-17 @ 20:53 UTC
(43 minutes ago)
VFR
Wind Visibility
280° at 11 knots 10 miles
Clouds
  • Clear skies
Temperature Dewpoint
11°C / 52°F -9°C / 16°F
Humidity Altimeter Pressure
24% 30.16" Hg 1022.5 hPa